createdAt,value
2023-06-02T00:00:40.376Z,11.15
2023-06-02T00:03:34.951Z,11.15
2023-06-02T00:06:06.987Z,11.15
2023-06-02T00:08:35.188Z,11.13
2023-06-02T00:11:03.563Z,11.12
2023-06-02T00:13:31.615Z,11.09
2023-06-02T00:15:59.952Z,11.05
2023-06-02T00:18:29.129Z,11.04
2023-06-02T00:21:01.222Z,11.04
2023-06-02T00:23:30.488Z,11.06
2023-06-02T00:25:58.868Z,11.05
2023-06-02T00:28:26.972Z,11.01
2023-06-02T00:30:54.999Z,10.93
2023-06-02T00:33:23.765Z,10.86
2023-06-02T00:35:51.678Z,10.79
2023-06-02T00:38:19.548Z,10.65
2023-06-02T00:40:47.450Z,10.52
2023-06-02T00:43:15.644Z,10.41
2023-06-02T00:45:43.429Z,10.34
2023-06-02T00:48:11.500Z,10.34
2023-06-02T00:50:39.704Z,10.34
2023-06-02T00:53:07.599Z,10.32
2023-06-02T00:55:35.542Z,10.33
2023-06-02T00:58:05.208Z,10.34
2023-06-02T01:00:39.556Z,10.36
2023-06-02T01:03:08.861Z,10.38
2023-06-02T01:05:38.395Z,10.42
2023-06-02T01:08:08.931Z,10.45
2023-06-02T01:10:39.006Z,10.48
2023-06-02T01:13:07.141Z,10.53
2023-06-02T01:15:35.015Z,10.56
2023-06-02T01:18:11.054Z,10.59
2023-06-02T01:20:45.919Z,10.61
2023-06-02T01:23:23.178Z,10.65
2023-06-02T01:25:55.358Z,10.68
2023-06-02T01:28:23.318Z,10.69
2023-06-02T01:30:59.081Z,10.71
2023-06-02T01:33:39.896Z,10.70
2023-06-02T01:36:08.082Z,10.70
2023-06-02T01:38:39.816Z,10.70
2023-06-02T01:41:08.353Z,10.72
2023-06-02T01:43:37.988Z,10.73
2023-06-02T01:46:07.444Z,10.74
2023-06-02T01:48:35.596Z,10.75
2023-06-02T01:51:03.567Z,10.73
2023-06-02T01:53:31.437Z,10.71
2023-06-02T01:55:59.743Z,10.68
2023-06-02T01:58:27.725Z,10.68
2023-06-02T02:00:56.034Z,10.66
2023-06-02T02:03:24.141Z,10.65
2023-06-02T02:05:52.293Z,10.63
2023-06-02T02:08:20.626Z,10.62
2023-06-02T02:10:48.495Z,10.62
2023-06-02T02:13:16.390Z,10.63
2023-06-02T02:15:45.348Z,10.63
2023-06-02T02:18:13.620Z,10.63
2023-06-02T02:20:42.219Z,10.64
2023-06-02T02:23:10.097Z,10.64
2023-06-02T02:25:37.938Z,10.65
2023-06-02T02:28:05.820Z,10.64
2023-06-02T02:30:33.760Z,10.64
2023-06-02T02:33:04.291Z,10.64
2023-06-02T02:35:32.240Z,10.61
2023-06-02T02:38:00.039Z,10.60
2023-06-02T02:40:27.874Z,10.59
2023-06-02T02:42:55.809Z,10.56
2023-06-02T02:45:23.821Z,10.53
2023-06-02T02:47:51.809Z,10.52
2023-06-02T02:50:19.702Z,10.51
2023-06-02T02:52:47.491Z,10.49
2023-06-02T02:55:16.164Z,10.49
2023-06-02T02:57:44.446Z,10.48
2023-06-02T03:00:14.360Z,10.47
2023-06-02T03:02:42.215Z,10.47
2023-06-02T03:05:14.497Z,10.47
2023-06-02T03:07:45.885Z,10.48
2023-06-02T03:10:13.928Z,10.47
2023-06-02T03:12:41.773Z,10.47
2023-06-02T03:15:10.079Z,10.46
2023-06-02T03:17:38.825Z,10.46
2023-06-02T03:20:10.360Z,10.45
2023-06-02T03:22:38.931Z,10.46
2023-06-02T03:25:07.305Z,10.44
2023-06-02T03:27:36.328Z,10.45
2023-06-02T03:30:04.559Z,10.45
2023-06-02T03:32:32.529Z,10.48
2023-06-02T03:35:00.685Z,10.50
2023-06-02T03:37:28.658Z,10.52
2023-06-02T03:39:56.546Z,10.54
2023-06-02T03:42:24.397Z,10.55
2023-06-02T03:44:52.208Z,10.56
2023-06-02T03:47:20.169Z,10.57
2023-06-02T03:49:48.022Z,10.59
2023-06-02T03:52:16.329Z,10.62
2023-06-02T03:54:44.507Z,10.63
2023-06-02T03:57:12.497Z,10.64
2023-06-02T03:59:40.297Z,10.65
2023-06-02T04:02:08.465Z,10.66
2023-06-02T04:04:38.041Z,10.67
2023-06-02T04:07:06.925Z,10.68
2023-06-02T04:09:35.805Z,10.67
2023-06-02T04:12:03.901Z,10.66
2023-06-02T04:14:32.387Z,10.65
2023-06-02T04:17:00.243Z,10.66
2023-06-02T04:19:28.193Z,10.66
2023-06-02T04:21:56.268Z,10.65
2023-06-02T04:24:24.256Z,10.67
2023-06-02T04:26:52.119Z,10.67
2023-06-02T04:29:21.310Z,10.69
2023-06-02T04:31:49.424Z,10.70
2023-06-02T04:34:17.384Z,10.73
2023-06-02T04:36:45.237Z,10.75
2023-06-02T04:39:13.082Z,10.75
2023-06-02T04:41:40.895Z,10.76
2023-06-02T04:44:10.060Z,10.79
2023-06-02T04:46:38.145Z,10.79
2023-06-02T04:49:10.444Z,10.79
2023-06-02T04:51:39.023Z,10.78
2023-06-02T04:54:07.655Z,10.80
2023-06-02T04:56:36.843Z,10.85
2023-06-02T04:59:05.329Z,10.91
2023-06-02T05:01:34.348Z,10.99
2023-06-02T05:04:04.598Z,11.06
2023-06-02T05:06:33.203Z,11.06
2023-06-02T05:09:03.454Z,11.08
2023-06-02T05:11:31.900Z,11.14
2023-06-02T05:13:59.889Z,11.29
2023-06-02T05:16:29.633Z,11.51
2023-06-02T05:18:57.660Z,11.63
2023-06-02T05:21:25.837Z,11.59
2023-06-02T05:23:53.775Z,11.49
2023-06-02T05:26:21.616Z,11.39
2023-06-02T05:28:52.497Z,11.30
2023-06-02T05:31:20.978Z,11.33
2023-06-02T05:33:48.938Z,11.47
2023-06-02T05:36:16.865Z,11.63
2023-06-02T05:38:45.990Z,11.70
2023-06-02T05:41:13.976Z,11.70
2023-06-02T05:43:42.000Z,11.72
2023-06-02T05:46:09.954Z,11.81
2023-06-02T05:48:39.816Z,11.89
2023-06-02T05:51:07.603Z,11.97
2023-06-02T05:53:35.481Z,12.01
2023-06-02T05:56:03.617Z,12.08
2023-06-02T05:58:32.690Z,12.14
2023-06-02T06:01:00.504Z,12.19
2023-06-02T06:03:28.536Z,12.20
2023-06-02T06:05:56.716Z,12.21
2023-06-02T06:08:24.656Z,12.21
2023-06-02T06:10:52.472Z,12.19
2023-06-02T06:13:20.516Z,12.15
2023-06-02T06:15:49.390Z,12.08
2023-06-02T06:18:17.360Z,12.05
2023-06-02T06:20:46.671Z,12.08
2023-06-02T06:23:15.469Z,12.03
2023-06-02T06:25:43.573Z,11.97
2023-06-02T06:28:11.465Z,11.95
2023-06-02T06:30:41.326Z,11.97
2023-06-02T06:33:10.106Z,12.01
2023-06-02T06:35:38.135Z,11.97
2023-06-02T06:38:06.024Z,11.92
2023-06-02T06:40:33.954Z,11.94
2023-06-02T06:43:15.097Z,12.00
2023-06-02T06:45:50.754Z,12.11
2023-06-02T06:48:18.830Z,12.17
2023-06-02T06:50:50.143Z,12.15
2023-06-02T06:53:20.495Z,12.14
2023-06-02T06:55:49.519Z,12.15
2023-06-02T06:58:17.403Z,12.09
2023-06-02T07:00:45.329Z,11.96
2023-06-02T07:03:13.301Z,11.91
2023-06-02T07:05:43.726Z,11.91
2023-06-02T07:08:12.503Z,11.91
2023-06-02T07:10:40.734Z,11.91
2023-06-02T07:13:08.632Z,11.92
2023-06-02T07:15:37.851Z,11.90
2023-06-02T07:18:05.901Z,11.85
2023-06-02T07:20:34.008Z,11.91
2023-06-02T07:23:02.181Z,12.01
2023-06-02T07:25:30.615Z,12.04
2023-06-02T07:27:58.418Z,11.98
2023-06-02T07:30:27.242Z,12.00
2023-06-02T07:32:55.286Z,12.10
2023-06-02T07:35:23.150Z,12.24
2023-06-02T07:37:54.849Z,12.27
2023-06-02T07:40:22.759Z,12.27
2023-06-02T07:42:50.630Z,12.35
2023-06-02T07:45:18.798Z,12.42
2023-06-02T07:47:47.023Z,12.50
2023-06-02T07:50:15.123Z,12.57
2023-06-02T07:52:43.163Z,12.56
2023-06-02T07:55:11.564Z,12.59
2023-06-02T07:57:39.588Z,12.68
2023-06-02T08:00:17.305Z,12.73
2023-06-02T08:02:50.754Z,12.74
2023-06-02T08:05:20.210Z,12.76
2023-06-02T08:07:48.293Z,12.82
2023-06-02T08:10:16.307Z,12.88
2023-06-02T08:12:44.293Z,13.00
2023-06-02T08:15:12.322Z,13.16
2023-06-02T08:17:40.868Z,13.31
2023-06-02T08:20:09.767Z,13.36
2023-06-02T08:22:37.875Z,13.34
2023-06-02T08:25:06.538Z,13.43
2023-06-02T08:27:34.410Z,13.53
2023-06-02T08:30:02.414Z,13.61
2023-06-02T08:32:31.156Z,13.55
2023-06-02T08:35:02.892Z,13.48
2023-06-02T08:37:33.237Z,13.54
2023-06-02T08:40:01.269Z,13.69
2023-06-02T08:42:31.492Z,13.81
2023-06-02T08:45:00.080Z,13.80
2023-06-02T08:47:31.926Z,13.72
2023-06-02T08:50:03.962Z,13.66
2023-06-02T08:52:36.763Z,13.66
2023-06-02T08:55:05.478Z,13.69
2023-06-02T08:57:35.498Z,13.67
2023-06-02T09:00:06.405Z,13.70
2023-06-02T09:02:34.329Z,13.81
2023-06-02T09:05:04.421Z,14.01
2023-06-02T09:07:33.207Z,14.14
2023-06-02T09:10:01.303Z,14.22
2023-06-02T09:12:29.576Z,14.22
2023-06-02T09:15:11.057Z,14.05
2023-06-02T09:17:39.472Z,13.91
2023-06-02T09:20:12.606Z,13.84
2023-06-02T09:22:55.971Z,13.78
2023-06-02T09:25:31.126Z,13.88
2023-06-02T09:28:01.741Z,13.97
2023-06-02T09:30:30.486Z,14.09
2023-06-02T09:33:06.970Z,14.12
2023-06-02T09:35:43.716Z,14.15
2023-06-02T09:38:18.303Z,14.25
2023-06-02T09:40:46.432Z,14.33
2023-06-02T09:43:17.350Z,14.43
2023-06-02T09:45:48.471Z,14.41
2023-06-02T09:48:21.554Z,14.38
2023-06-02T09:50:51.332Z,14.36
2023-06-02T09:53:20.128Z,14.32
2023-06-02T09:55:51.514Z,14.37
2023-06-02T09:58:20.325Z,14.35
2023-06-02T10:00:48.365Z,14.37
2023-06-02T10:03:17.643Z,14.42
2023-06-02T10:06:08.641Z,14.38
2023-06-02T10:09:12.275Z,14.31
2023-06-02T10:12:31.710Z,14.22
2023-06-02T10:15:27.657Z,14.10
2023-06-02T10:18:21.584Z,14.07
2023-06-02T10:21:07.998Z,14.10
2023-06-02T10:23:48.970Z,14.24
2023-06-02T10:26:56.709Z,14.32
2023-06-02T10:29:29.597Z,14.42
2023-06-02T10:31:58.011Z,14.62
2023-06-02T10:34:40.004Z,14.84
2023-06-02T10:37:08.055Z,15.01
2023-06-02T10:39:36.348Z,15.10
2023-06-02T10:42:12.904Z,15.13
2023-06-02T10:44:41.218Z,15.15
2023-06-02T10:47:21.648Z,15.17
2023-06-02T10:50:08.073Z,15.15
2023-06-02T10:53:01.089Z,15.05
2023-06-02T10:55:34.780Z,14.90
2023-06-02T10:58:07.469Z,14.95
2023-06-02T11:00:37.294Z,14.92
2023-06-02T11:03:28.892Z,14.84
2023-06-02T11:06:23.021Z,14.77
2023-06-02T11:08:53.458Z,14.77
2023-06-02T11:11:52.669Z,14.80
2023-06-02T11:14:21.243Z,14.66
2023-06-02T11:17:35.170Z,14.53
2023-06-02T11:20:08.676Z,14.55
2023-06-02T11:22:37.987Z,14.74
2023-06-02T11:25:06.832Z,14.93
2023-06-02T11:27:38.185Z,15.01
2023-06-02T11:30:13.257Z,14.93
2023-06-02T11:32:43.393Z,14.68
2023-06-02T11:35:12.576Z,14.69
2023-06-02T11:37:45.118Z,14.84
2023-06-02T11:40:14.549Z,14.89
2023-06-02T11:42:45.519Z,14.87
2023-06-02T11:45:26.646Z,14.93
2023-06-02T11:48:09.244Z,15.19
2023-06-02T11:50:40.048Z,15.46
2023-06-02T11:53:18.551Z,15.50
2023-06-02T11:55:46.613Z,15.52
2023-06-02T11:58:28.128Z,15.48
2023-06-02T12:01:19.458Z,15.26
2023-06-02T12:04:08.700Z,15.02
2023-06-02T12:06:46.645Z,14.94
2023-06-02T12:09:18.776Z,14.95
2023-06-02T12:11:48.184Z,15.00
2023-06-02T12:14:16.334Z,15.00
2023-06-02T12:16:45.485Z,14.89
2023-06-02T12:19:16.084Z,14.82
2023-06-02T12:21:47.740Z,14.86
2023-06-02T12:24:30.662Z,14.91
2023-06-02T12:26:59.293Z,14.93
2023-06-02T12:29:28.879Z,14.94
2023-06-02T12:32:06.700Z,14.88
2023-06-02T12:34:35.717Z,14.75
2023-06-02T12:37:04.281Z,14.69
2023-06-02T12:39:32.678Z,14.64
2023-06-02T12:42:00.939Z,14.70
2023-06-02T12:44:29.057Z,14.87
2023-06-02T12:46:57.706Z,15.00
2023-06-02T12:49:25.705Z,15.04
2023-06-02T12:51:53.962Z,15.01
2023-06-02T12:54:21.919Z,15.01
2023-06-02T12:56:50.815Z,15.05
2023-06-02T12:59:19.213Z,15.12
2023-06-02T13:01:48.668Z,15.08
2023-06-02T13:04:17.942Z,15.06
2023-06-02T13:06:46.236Z,15.11
2023-06-02T13:09:14.511Z,15.15
2023-06-02T13:11:44.183Z,15.16
2023-06-02T13:14:12.285Z,15.06
2023-06-02T13:16:40.176Z,15.01
2023-06-02T13:19:08.153Z,14.96
2023-06-02T13:21:36.083Z,14.89
2023-06-02T13:24:04.573Z,14.78
2023-06-02T13:26:32.586Z,14.73
2023-06-02T13:29:02.420Z,14.69
2023-06-02T13:31:31.429Z,14.71
2023-06-02T13:33:59.452Z,14.74
2023-06-02T13:36:27.372Z,14.75
2023-06-02T13:38:55.483Z,14.74
2023-06-02T13:41:23.417Z,14.64
2023-06-02T13:43:51.422Z,14.41
2023-06-02T13:46:19.325Z,14.14
2023-06-02T13:48:47.273Z,13.96
2023-06-02T13:51:15.220Z,13.78
2023-06-02T13:53:43.121Z,13.63
2023-06-02T13:56:11.095Z,13.55
2023-06-02T13:58:39.126Z,13.48
2023-06-02T14:01:07.105Z,13.35
2023-06-02T14:03:35.213Z,13.24
2023-06-02T14:06:04.248Z,13.22
2023-06-02T14:08:32.350Z,13.26
2023-06-02T14:11:00.233Z,13.34
2023-06-02T14:13:28.325Z,13.34
2023-06-02T14:15:56.362Z,13.34
2023-06-02T14:18:24.556Z,13.42
2023-06-02T14:20:52.652Z,13.57
2023-06-02T14:23:20.677Z,13.66
2023-06-02T14:25:48.611Z,13.74
2023-06-02T14:28:16.730Z,13.84
2023-06-02T14:30:44.689Z,13.91
2023-06-02T14:33:12.909Z,14.03
2023-06-02T14:35:41.014Z,14.11
2023-06-02T14:38:09.017Z,14.16
2023-06-02T14:40:37.730Z,14.17
2023-06-02T14:43:08.923Z,14.15
2023-06-02T14:45:36.983Z,14.18
2023-06-02T14:48:06.138Z,14.22
2023-06-02T14:50:34.451Z,14.20
2023-06-02T14:53:02.276Z,14.07
2023-06-02T14:55:31.455Z,13.97
2023-06-02T14:57:59.525Z,13.93
2023-06-02T15:00:28.761Z,14.00
2023-06-02T15:02:57.748Z,14.03
2023-06-02T15:05:27.897Z,13.99
2023-06-02T15:07:59.140Z,13.97
2023-06-02T15:10:27.090Z,13.90
2023-06-02T15:12:55.237Z,13.85
2023-06-02T15:15:23.382Z,13.82
2023-06-02T15:17:51.588Z,13.91
2023-06-02T15:20:19.628Z,13.98
2023-06-02T15:22:47.794Z,13.94
2023-06-02T15:25:16.056Z,13.89
2023-06-02T15:27:44.035Z,13.83
2023-06-02T15:30:12.229Z,13.62
2023-06-02T15:32:40.179Z,13.43
2023-06-02T15:35:08.706Z,13.29
2023-06-02T15:37:36.620Z,13.23
2023-06-02T15:40:05.484Z,13.24
2023-06-02T15:42:33.479Z,13.22
2023-06-02T15:45:01.716Z,13.16
2023-06-02T15:47:29.652Z,13.15
2023-06-02T15:50:02.425Z,13.20
2023-06-02T15:52:30.523Z,13.32
2023-06-02T15:54:58.500Z,13.36
2023-06-02T15:57:26.766Z,13.29
2023-06-02T15:59:55.641Z,13.25
2023-06-02T16:02:23.747Z,13.27
2023-06-02T16:04:51.881Z,13.30
2023-06-02T16:07:19.756Z,13.36
2023-06-02T16:09:47.703Z,13.41
2023-06-02T16:12:16.056Z,13.40
2023-06-02T16:14:43.963Z,13.40
2023-06-02T16:17:11.838Z,13.43
2023-06-02T16:19:39.962Z,13.50
2023-06-02T16:22:08.125Z,13.66
2023-06-02T16:24:36.309Z,13.60
2023-06-02T16:27:04.996Z,13.56
2023-06-02T16:29:33.288Z,13.63
2023-06-02T16:32:01.362Z,13.71
2023-06-02T16:34:31.637Z,13.80
2023-06-02T16:37:01.096Z,13.92
2023-06-02T16:39:28.960Z,14.07
2023-06-02T16:41:56.940Z,14.20
2023-06-02T16:44:26.238Z,14.31
2023-06-02T16:46:54.431Z,14.43
2023-06-02T16:49:24.590Z,14.57
2023-06-02T16:51:53.159Z,14.70
2023-06-02T16:54:21.795Z,14.77
2023-06-02T16:56:50.250Z,14.82
2023-06-02T16:59:18.435Z,14.83
2023-06-02T17:01:47.964Z,14.88
2023-06-02T17:04:18.100Z,14.90
2023-06-02T17:06:46.090Z,14.86
2023-06-02T17:09:17.948Z,14.84
2023-06-02T17:11:48.071Z,14.90
2023-06-02T17:14:16.551Z,14.96
2023-06-02T17:16:44.527Z,15.09
2023-06-02T17:19:13.064Z,15.30
2023-06-02T17:21:41.108Z,15.42
2023-06-02T17:24:09.238Z,15.54
2023-06-02T17:26:37.477Z,15.60
2023-06-02T17:29:05.542Z,15.67
2023-06-02T17:31:33.602Z,15.75
2023-06-02T17:34:02.116Z,15.83
2023-06-02T17:36:30.232Z,15.76
2023-06-02T17:38:58.177Z,15.25
2023-06-02T17:41:26.775Z,14.56
2023-06-02T17:43:54.666Z,14.00
2023-06-02T17:46:22.722Z,13.79
2023-06-02T17:48:50.739Z,13.92
2023-06-02T17:51:18.782Z,14.14
2023-06-02T17:53:46.650Z,14.33
2023-06-02T17:56:15.288Z,14.49
2023-06-02T17:58:43.394Z,14.58
2023-06-02T18:01:11.789Z,14.47
2023-06-02T18:03:40.104Z,14.17
2023-06-02T18:06:08.983Z,13.81
2023-06-02T18:08:37.490Z,13.40
2023-06-02T18:11:05.786Z,12.94
2023-06-02T18:13:34.373Z,12.52
2023-06-02T18:16:02.953Z,12.17
2023-06-02T18:18:31.255Z,11.92
2023-06-02T18:21:00.392Z,11.69
2023-06-02T18:23:28.952Z,11.49
2023-06-02T18:25:59.112Z,11.31
2023-06-02T18:28:27.343Z,11.16
2023-06-02T18:30:55.744Z,11.01
2023-06-02T18:33:23.973Z,10.88
2023-06-02T18:35:52.669Z,10.76
2023-06-02T18:38:20.899Z,10.62
2023-06-02T18:40:49.241Z,10.49
2023-06-02T18:43:18.764Z,10.39
2023-06-02T18:45:46.688Z,10.30
2023-06-02T18:48:15.149Z,10.22
2023-06-02T18:50:43.324Z,10.15
2023-06-02T18:53:11.938Z,10.10
2023-06-02T18:55:40.352Z,10.03
2023-06-02T18:58:08.861Z,9.97
2023-06-02T19:00:37.522Z,9.90
2023-06-02T19:03:07.152Z,9.86
2023-06-02T19:05:35.623Z,9.82
2023-06-02T19:08:04.609Z,9.78
2023-06-02T19:10:33.108Z,9.75
2023-06-02T19:13:00.992Z,9.71
2023-06-02T19:15:29.242Z,9.67
2023-06-02T19:17:59.203Z,9.62
2023-06-02T19:20:27.174Z,9.60
2023-06-02T19:23:00.002Z,9.56
2023-06-02T19:25:28.726Z,9.53
2023-06-02T19:27:57.287Z,9.49
2023-06-02T19:30:25.928Z,9.46
2023-06-02T19:32:54.221Z,9.43
2023-06-02T19:35:23.130Z,9.41
2023-06-02T19:37:51.150Z,9.38
2023-06-02T19:40:20.394Z,9.35
2023-06-02T19:42:48.804Z,9.33
2023-06-02T19:45:17.024Z,9.41
2023-06-02T19:47:44.981Z,9.48
2023-06-02T19:50:16.724Z,9.48
2023-06-02T19:52:44.939Z,9.46
2023-06-02T19:55:13.405Z,9.43
2023-06-02T19:57:42.134Z,9.37
2023-06-02T20:00:12.043Z,9.32
2023-06-02T20:02:40.413Z,9.29
2023-06-02T20:05:12.586Z,9.25
2023-06-02T20:07:42.588Z,9.22
2023-06-02T20:10:12.740Z,9.18
2023-06-02T20:12:40.813Z,9.16
2023-06-02T20:15:09.188Z,9.12
2023-06-02T20:17:42.322Z,9.07
2023-06-02T20:20:12.191Z,9.02
2023-06-02T20:22:42.660Z,8.94
2023-06-02T20:25:10.931Z,8.87
2023-06-02T20:27:39.056Z,8.79
2023-06-02T20:30:09.275Z,8.73
2023-06-02T20:32:37.961Z,8.67
2023-06-02T20:35:09.324Z,8.63
2023-06-02T20:37:38.550Z,8.70
2023-06-02T20:40:08.523Z,8.79
2023-06-02T20:42:36.925Z,8.88
2023-06-02T20:45:05.429Z,9.00
2023-06-02T20:47:33.382Z,9.09
2023-06-02T20:50:01.343Z,9.15
2023-06-02T20:52:29.437Z,9.21
2023-06-02T20:54:57.293Z,9.27
2023-06-02T20:57:25.628Z,9.34
2023-06-02T20:59:53.670Z,9.40
2023-06-02T21:02:21.667Z,9.45
2023-06-02T21:04:50.739Z,9.49
2023-06-02T21:07:18.577Z,9.56
2023-06-02T21:09:46.496Z,9.61
2023-06-02T21:12:14.402Z,9.66
2023-06-02T21:14:44.436Z,9.65
2023-06-02T21:17:12.635Z,9.64
2023-06-02T21:19:40.590Z,9.58
2023-06-02T21:22:08.594Z,9.51
2023-06-02T21:24:36.759Z,9.48
2023-06-02T21:27:05.169Z,9.47
2023-06-02T21:29:33.197Z,9.43
2023-06-02T21:32:01.276Z,9.40
2023-06-02T21:34:29.223Z,9.35
2023-06-02T21:36:57.418Z,9.17
2023-06-02T21:39:25.667Z,8.86
2023-06-02T21:41:53.672Z,8.59
2023-06-02T21:44:21.968Z,8.47
2023-06-02T21:46:49.959Z,8.38
2023-06-02T21:49:18.266Z,8.33
2023-06-02T21:51:46.945Z,8.29
2023-06-02T21:54:14.806Z,8.24
2023-06-02T21:56:42.621Z,8.19
2023-06-02T21:59:10.605Z,8.14
2023-06-02T22:01:38.596Z,8.09
2023-06-02T22:04:06.643Z,8.07
2023-06-02T22:06:34.639Z,8.06
2023-06-02T22:09:02.939Z,8.06
2023-06-02T22:11:30.841Z,8.04
2023-06-02T22:13:58.817Z,8.04
2023-06-02T22:16:26.985Z,8.03
2023-06-02T22:18:54.944Z,8.02
2023-06-02T22:21:47.814Z,8.01
2023-06-02T22:24:25.972Z,8.05
2023-06-02T22:26:57.334Z,8.13
2023-06-02T22:29:25.671Z,8.19
2023-06-02T22:31:53.761Z,8.22
2023-06-02T22:34:22.017Z,8.25
2023-06-02T22:36:49.837Z,8.27
2023-06-02T22:39:17.807Z,8.28
2023-06-02T22:41:45.760Z,8.29
2023-06-02T22:44:13.684Z,8.29
2023-06-02T22:46:41.518Z,8.32
2023-06-02T22:49:09.410Z,8.37
2023-06-02T22:51:39.705Z,8.25
2023-06-02T22:54:08.071Z,8.10
2023-06-02T22:56:35.901Z,8.06
2023-06-02T22:59:03.794Z,8.07
2023-06-02T23:01:31.632Z,8.09
2023-06-02T23:03:59.523Z,8.08
2023-06-02T23:06:27.383Z,8.05
2023-06-02T23:08:55.292Z,8.03
2023-06-02T23:11:23.121Z,8.02
2023-06-02T23:13:50.979Z,8.03
2023-06-02T23:16:19.092Z,8.11
2023-06-02T23:18:47.023Z,8.16
2023-06-02T23:21:16.109Z,8.19
2023-06-02T23:23:44.020Z,8.19
2023-06-02T23:26:11.963Z,8.20
2023-06-02T23:28:39.850Z,8.21
2023-06-02T23:31:08.141Z,8.19
2023-06-02T23:33:36.198Z,8.19
2023-06-02T23:36:04.384Z,8.19
2023-06-02T23:38:32.373Z,8.18
2023-06-02T23:41:00.227Z,8.18
2023-06-02T23:43:28.158Z,8.18
2023-06-02T23:45:56.054Z,8.16
2023-06-02T23:48:23.923Z,8.13
2023-06-02T23:50:51.707Z,8.10
2023-06-02T23:53:20.442Z,8.09
2023-06-02T23:55:48.613Z,8.09
2023-06-02T23:58:16.675Z,8.08
